sensor_id;sensor_type;location;lat;lon;timestamp;P1;durP1;ratioP1;P2;durP2;ratioP2
63379;SDS011;53160;55.014;73.156;2022-09-09T00:06:52;5.00;;;5.00;;
63379;SDS011;53160;55.014;73.156;2022-09-09T00:09:31;6.00;;;6.00;;
63379;SDS011;53160;55.014;73.156;2022-09-09T00:12:04;3.25;;;3.25;;
63379;SDS011;53160;55.014;73.156;2022-09-09T00:17:24;3.50;;;3.50;;
63379;SDS011;53160;55.014;73.156;2022-09-09T00:22:29;4.00;;;4.00;;
63379;SDS011;53160;55.014;73.156;2022-09-09T00:27:52;4.75;;;4.75;;
63379;SDS011;53160;55.014;73.156;2022-09-09T00:30:23;5.25;;;4.00;;
63379;SDS011;53160;55.014;73.156;2022-09-09T00:32:50;3.00;;;3.00;;
63379;SDS011;53160;55.014;73.156;2022-09-09T00:37:50;9.75;;;8.75;;
63379;SDS011;53160;55.014;73.156;2022-09-09T00:40:35;14.00;;;13.00;;
63379;SDS011;53160;55.014;73.156;2022-09-09T00:48:08;8.00;;;7.00;;
63379;SDS011;53160;55.014;73.156;2022-09-09T00:50:44;8.00;;;7.00;;
63379;SDS011;53160;55.014;73.156;2022-09-09T00:53:35;12.20;;;12.20;;
63379;SDS011;53160;55.014;73.156;2022-09-09T00:58:34;7.25;;;6.00;;
63379;SDS011;53160;55.014;73.156;2022-09-09T01:01:11;7.00;;;7.00;;
63379;SDS011;53160;55.014;73.156;2022-09-09T01:03:54;9.75;;;8.50;;
63379;SDS011;53160;55.014;73.156;2022-09-09T01:06:30;13.50;;;11.00;;
63379;SDS011;53160;55.014;73.156;2022-09-09T01:09:16;8.50;;;8.50;;
63379;SDS011;53160;55.014;73.156;2022-09-09T01:14:22;9.00;;;8.00;;
63379;SDS011;53160;55.014;73.156;2022-09-09T01:16:54;8.50;;;8.25;;
63379;SDS011;53160;55.014;73.156;2022-09-09T01:27:43;13.75;;;10.50;;
63379;SDS011;53160;55.014;73.156;2022-09-09T01:30:11;8.75;;;8.00;;
63379;SDS011;53160;55.014;73.156;2022-09-09T01:32:41;9.50;;;9.00;;
63379;SDS011;53160;55.014;73.156;2022-09-09T01:35:15;15.00;;;14.40;;
63379;SDS011;53160;55.014;73.156;2022-09-09T01:37:46;15.60;;;14.60;;
63379;SDS011;53160;55.014;73.156;2022-09-09T01:40:13;15.25;;;11.50;;
63379;SDS011;53160;55.014;73.156;2022-09-09T01:42:40;16.75;;;15.50;;
63379;SDS011;53160;55.014;73.156;2022-09-09T01:45:06;6.25;;;6.25;;
63379;SDS011;53160;55.014;73.156;2022-09-09T01:47:33;8.00;;;8.00;;
63379;SDS011;53160;55.014;73.156;2022-09-09T01:50:12;4.00;;;4.00;;
63379;SDS011;53160;55.014;73.156;2022-09-09T01:52:40;7.25;;;6.50;;
63379;SDS011;53160;55.014;73.156;2022-09-09T01:55:10;8.50;;;5.50;;
63379;SDS011;53160;55.014;73.156;2022-09-09T01:57:41;6.25;;;5.00;;
63379;SDS011;53160;55.014;73.156;2022-09-09T02:00:14;4.50;;;3.75;;
63379;SDS011;53160;55.014;73.156;2022-09-09T02:07:54;5.75;;;5.00;;
63379;SDS011;53160;55.014;73.156;2022-09-09T02:10:31;4.25;;;4.00;;
63379;SDS011;53160;55.014;73.156;2022-09-09T02:13:26;2.00;;;2.00;;
63379;SDS011;53160;55.014;73.156;2022-09-09T02:15:53;3.75;;;3.00;;
63379;SDS011;53160;55.014;73.156;2022-09-09T02:18:25;3.75;;;3.75;;
63379;SDS011;53160;55.014;73.156;2022-09-09T02:20:58;5.25;;;5.00;;
63379;SDS011;53160;55.014;73.156;2022-09-09T02:23:25;3.00;;;3.00;;
63379;SDS011;53160;55.014;73.156;2022-09-09T02:25:54;7.75;;;7.25;;
63379;SDS011;53160;55.014;73.156;2022-09-09T02:28:25;3.50;;;3.25;;
63379;SDS011;53160;55.014;73.156;2022-09-09T02:30:53;4.25;;;4.25;;
63379;SDS011;53160;55.014;73.156;2022-09-09T02:33:35;4.25;;;4.25;;
63379;SDS011;53160;55.014;73.156;2022-09-09T02:36:07;3.75;;;3.00;;
63379;SDS011;53160;55.014;73.156;2022-09-09T02:38:37;4.75;;;4.75;;
63379;SDS011;53160;55.014;73.156;2022-09-09T02:41:09;3.75;;;3.75;;
63379;SDS011;53160;55.014;73.156;2022-09-09T02:43:35;9.25;;;8.00;;
63379;SDS011;53160;55.014;73.156;2022-09-09T02:51:23;3.75;;;3.00;;
63379;SDS011;53160;55.014;73.156;2022-09-09T02:56:29;3.00;;;3.00;;
63379;SDS011;53160;55.014;73.156;2022-09-09T02:58:59;3.50;;;2.75;;
63379;SDS011;53160;55.014;73.156;2022-09-09T03:01:25;3.25;;;3.00;;
63379;SDS011;53160;55.014;73.156;2022-09-09T03:03:52;3.75;;;2.00;;
63379;SDS011;53160;55.014;73.156;2022-09-09T03:06:18;2.75;;;2.75;;
63379;SDS011;53160;55.014;73.156;2022-09-09T03:08:50;0.75;;;0.75;;
63379;SDS011;53160;55.014;73.156;2022-09-09T03:11:21;2.50;;;2.00;;
63379;SDS011;53160;55.014;73.156;2022-09-09T03:13:48;3.50;;;3.00;;
63379;SDS011;53160;55.014;73.156;2022-09-09T03:16:24;2.75;;;2.75;;
63379;SDS011;53160;55.014;73.156;2022-09-09T03:18:53;2.75;;;2.75;;
63379;SDS011;53160;55.014;73.156;2022-09-09T03:21:21;2.00;;;2.00;;
63379;SDS011;53160;55.014;73.156;2022-09-09T03:23:49;3.25;;;2.75;;
63379;SDS011;53160;55.014;73.156;2022-09-09T03:26:15;2.00;;;2.00;;
63379;SDS011;53160;55.014;73.156;2022-09-09T03:28:44;4.00;;;3.00;;
63379;SDS011;53160;55.014;73.156;2022-09-09T03:31:24;1.75;;;1.75;;
63379;SDS011;53160;55.014;73.156;2022-09-09T03:33:51;1.50;;;1.00;;
63379;SDS011;53160;55.014;73.156;2022-09-09T03:36:22;1.00;;;1.00;;
63379;SDS011;53160;55.014;73.156;2022-09-09T03:38:48;1.25;;;1.25;;
63379;SDS011;53160;55.014;73.156;2022-09-09T03:41:14;2.00;;;2.00;;
63379;SDS011;53160;55.014;73.156;2022-09-09T03:43:46;2.75;;;2.00;;
63379;SDS011;53160;55.014;73.156;2022-09-09T03:46:12;1.00;;;1.00;;
63379;SDS011;53160;55.014;73.156;2022-09-09T03:48:39;1.75;;;1.00;;
63379;SDS011;53160;55.014;73.156;2022-09-09T03:51:05;2.00;;;1.75;;
63379;SDS011;53160;55.014;73.156;2022-09-09T03:53:42;2.25;;;2.25;;
63379;SDS011;53160;55.014;73.156;2022-09-09T03:56:18;1.00;;;1.00;;
63379;SDS011;53160;55.014;73.156;2022-09-09T03:58:47;2.00;;;2.00;;
63379;SDS011;53160;55.014;73.156;2022-09-09T04:01:22;1.00;;;1.00;;
63379;SDS011;53160;55.014;73.156;2022-09-09T04:03:48;2.00;;;1.50;;
63379;SDS011;53160;55.014;73.156;2022-09-09T04:06:20;1.00;;;1.00;;
63379;SDS011;53160;55.014;73.156;2022-09-09T04:08:52;2.00;;;1.00;;
63379;SDS011;53160;55.014;73.156;2022-09-09T04:11:20;2.00;;;1.00;;
63379;SDS011;53160;55.014;73.156;2022-09-09T04:13:49;1.00;;;1.00;;
63379;SDS011;53160;55.014;73.156;2022-09-09T04:16:17;1.00;;;1.00;;
63379;SDS011;53160;55.014;73.156;2022-09-09T04:18:44;1.50;;;1.50;;
63379;SDS011;53160;55.014;73.156;2022-09-09T04:21:10;2.00;;;2.00;;
63379;SDS011;53160;55.014;73.156;2022-09-09T04:23:38;2.00;;;2.00;;
63379;SDS011;53160;55.014;73.156;2022-09-09T04:26:05;1.00;;;1.00;;
63379;SDS011;53160;55.014;73.156;2022-09-09T04:28:33;1.00;;;1.00;;
63379;SDS011;53160;55.014;73.156;2022-09-09T04:31:15;1.75;;;1.00;;
63379;SDS011;53160;55.014;73.156;2022-09-09T04:33:44;1.00;;;1.00;;
63379;SDS011;53160;55.014;73.156;2022-09-09T04:36:15;1.00;;;1.00;;
63379;SDS011;53160;55.014;73.156;2022-09-09T04:38:46;2.00;;;2.00;;
63379;SDS011;53160;55.014;73.156;2022-09-09T04:41:14;1.00;;;1.00;;
63379;SDS011;53160;55.014;73.156;2022-09-09T04:43:43;0.75;;;0.75;;
63379;SDS011;53160;55.014;73.156;2022-09-09T04:46:16;3.75;;;2.50;;
63379;SDS011;53160;55.014;73.156;2022-09-09T04:48:43;3.25;;;3.25;;
63379;SDS011;53160;55.014;73.156;2022-09-09T04:51:11;2.00;;;2.00;;
63379;SDS011;53160;55.014;73.156;2022-09-09T04:53:49;3.00;;;2.75;;
63379;SDS011;53160;55.014;73.156;2022-09-09T04:56:17;2.00;;;1.25;;
63379;SDS011;53160;55.014;73.156;2022-09-09T04:58:49;4.75;;;4.00;;
63379;SDS011;53160;55.014;73.156;2022-09-09T05:01:17;4.00;;;2.50;;
63379;SDS011;53160;55.014;73.156;2022-09-09T05:03:45;3.50;;;2.00;;
63379;SDS011;53160;55.014;73.156;2022-09-09T05:06:14;2.00;;;2.00;;
63379;SDS011;53160;55.014;73.156;2022-09-09T05:08:41;2.00;;;1.75;;
63379;SDS011;53160;55.014;73.156;2022-09-09T05:11:14;3.00;;;2.00;;
63379;SDS011;53160;55.014;73.156;2022-09-09T05:13:42;1.00;;;1.00;;
63379;SDS011;53160;55.014;73.156;2022-09-09T05:16:10;2.00;;;2.00;;
63379;SDS011;53160;55.014;73.156;2022-09-09T05:18:40;2.25;;;1.75;;
63379;SDS011;53160;55.014;73.156;2022-09-09T05:21:07;4.50;;;4.00;;
63379;SDS011;53160;55.014;73.156;2022-09-09T05:23:39;8.25;;;4.25;;
63379;SDS011;53160;55.014;73.156;2022-09-09T05:26:07;12.75;;;6.25;;
63379;SDS011;53160;55.014;73.156;2022-09-09T05:28:40;14.25;;;8.00;;
63379;SDS011;53160;55.014;73.156;2022-09-09T05:31:07;6.50;;;4.00;;
63379;SDS011;53160;55.014;73.156;2022-09-09T05:33:40;3.75;;;2.50;;
63379;SDS011;53160;55.014;73.156;2022-09-09T05:36:17;4.25;;;3.25;;
63379;SDS011;53160;55.014;73.156;2022-09-09T05:38:51;1.00;;;1.00;;
63379;SDS011;53160;55.014;73.156;2022-09-09T05:41:20;1.00;;;1.00;;
63379;SDS011;53160;55.014;73.156;2022-09-09T05:43:53;0.25;;;0.00;;
63379;SDS011;53160;55.014;73.156;2022-09-09T05:46:30;1.75;;;1.00;;
63379;SDS011;53160;55.014;73.156;2022-09-09T05:48:57;2.00;;;2.00;;
63379;SDS011;53160;55.014;73.156;2022-09-09T05:51:36;3.00;;;3.00;;
63379;SDS011;53160;55.014;73.156;2022-09-09T05:54:07;1.75;;;1.75;;
63379;SDS011;53160;55.014;73.156;2022-09-09T05:56:37;0.25;;;0.25;;
63379;SDS011;53160;55.014;73.156;2022-09-09T05:59:06;1.00;;;1.00;;
63379;SDS011;53160;55.014;73.156;2022-09-09T06:01:33;7.00;;;6.00;;
63379;SDS011;53160;55.014;73.156;2022-09-09T06:04:06;3.00;;;3.00;;
63379;SDS011;53160;55.014;73.156;2022-09-09T06:06:35;2.00;;;2.00;;
63379;SDS011;53160;55.014;73.156;2022-09-09T06:09:04;1.00;;;1.00;;
63379;SDS011;53160;55.014;73.156;2022-09-09T06:11:46;1.50;;;1.25;;
63379;SDS011;53160;55.014;73.156;2022-09-09T06:14:14;4.00;;;4.00;;
63379;SDS011;53160;55.014;73.156;2022-09-09T06:16:42;2.75;;;2.75;;
63379;SDS011;53160;55.014;73.156;2022-09-09T06:19:29;2.00;;;2.00;;
63379;SDS011;53160;55.014;73.156;2022-09-09T06:21:58;2.50;;;2.50;;
63379;SDS011;53160;55.014;73.156;2022-09-09T06:24:26;2.50;;;2.50;;
63379;SDS011;53160;55.014;73.156;2022-09-09T06:26:53;3.00;;;3.00;;
63379;SDS011;53160;55.014;73.156;2022-09-09T06:29:28;2.50;;;2.50;;
63379;SDS011;53160;55.014;73.156;2022-09-09T06:31:54;2.50;;;2.50;;
63379;SDS011;53160;55.014;73.156;2022-09-09T06:34:27;1.50;;;1.50;;
63379;SDS011;53160;55.014;73.156;2022-09-09T06:36:56;3.67;;;2.67;;
63379;SDS011;53160;55.014;73.156;2022-09-09T06:39:24;1.25;;;1.25;;
63379;SDS011;53160;55.014;73.156;2022-09-09T06:41:52;1.50;;;1.50;;
63379;SDS011;53160;55.014;73.156;2022-09-09T06:44:48;2.00;;;1.25;;
63379;SDS011;53160;55.014;73.156;2022-09-09T06:47:32;2.00;;;2.00;;
63379;SDS011;53160;55.014;73.156;2022-09-09T06:50:04;2.50;;;2.50;;
63379;SDS011;53160;55.014;73.156;2022-09-09T06:52:33;5.50;;;3.50;;
63379;SDS011;53160;55.014;73.156;2022-09-09T06:55:00;5.00;;;3.50;;
63379;SDS011;53160;55.014;73.156;2022-09-09T06:57:27;3.75;;;3.50;;
63379;SDS011;53160;55.014;73.156;2022-09-09T06:59:53;2.00;;;2.00;;
63379;SDS011;53160;55.014;73.156;2022-09-09T07:02:19;1.50;;;1.50;;
63379;SDS011;53160;55.014;73.156;2022-09-09T07:04:47;1.75;;;1.75;;
63379;SDS011;53160;55.014;73.156;2022-09-09T07:07:13;1.50;;;1.50;;
63379;SDS011;53160;55.014;73.156;2022-09-09T07:09:41;4.75;;;3.00;;
63379;SDS011;53160;55.014;73.156;2022-09-09T07:12:07;1.75;;;1.75;;
63379;SDS011;53160;55.014;73.156;2022-09-09T07:14:37;1.00;;;1.00;;
63379;SDS011;53160;55.014;73.156;2022-09-09T07:17:06;3.50;;;2.50;;
63379;SDS011;53160;55.014;73.156;2022-09-09T07:19:37;1.75;;;1.75;;
63379;SDS011;53160;55.014;73.156;2022-09-09T07:22:04;1.00;;;1.00;;
63379;SDS011;53160;55.014;73.156;2022-09-09T07:24:43;1.50;;;1.25;;
63379;SDS011;53160;55.014;73.156;2022-09-09T07:27:11;1.75;;;1.75;;
63379;SDS011;53160;55.014;73.156;2022-09-09T07:29:38;2.50;;;2.50;;
63379;SDS011;53160;55.014;73.156;2022-09-09T07:32:05;2.00;;;2.00;;
63379;SDS011;53160;55.014;73.156;2022-09-09T07:34:35;3.00;;;3.00;;
63379;SDS011;53160;55.014;73.156;2022-09-09T07:37:02;3.00;;;2.00;;
63379;SDS011;53160;55.014;73.156;2022-09-09T07:39:35;2.00;;;2.00;;
63379;SDS011;53160;55.014;73.156;2022-09-09T07:42:05;2.00;;;2.00;;
63379;SDS011;53160;55.014;73.156;2022-09-09T07:44:41;4.25;;;3.25;;
63379;SDS011;53160;55.014;73.156;2022-09-09T07:47:12;3.00;;;3.00;;
63379;SDS011;53160;55.014;73.156;2022-09-09T07:49:43;2.00;;;2.00;;
63379;SDS011;53160;55.014;73.156;2022-09-09T07:52:11;2.00;;;2.00;;
63379;SDS011;53160;55.014;73.156;2022-09-09T07:54:40;3.50;;;3.00;;
63379;SDS011;53160;55.014;73.156;2022-09-09T07:57:07;2.00;;;2.00;;
63379;SDS011;53160;55.014;73.156;2022-09-09T07:59:36;3.00;;;3.00;;
63379;SDS011;53160;55.014;73.156;2022-09-09T08:02:03;3.00;;;3.00;;
63379;SDS011;53160;55.014;73.156;2022-09-09T08:04:32;1.50;;;1.00;;
63379;SDS011;53160;55.014;73.156;2022-09-09T08:06:59;3.50;;;2.75;;
63379;SDS011;53160;55.014;73.156;2022-09-09T08:09:27;2.00;;;2.00;;
63379;SDS011;53160;55.014;73.156;2022-09-09T08:12:07;3.00;;;3.00;;
63379;SDS011;53160;55.014;73.156;2022-09-09T08:14:34;3.00;;;2.50;;
63379;SDS011;53160;55.014;73.156;2022-09-09T08:17:01;2.50;;;2.50;;
63379;SDS011;53160;55.014;73.156;2022-09-09T08:19:34;2.75;;;2.75;;
63379;SDS011;53160;55.014;73.156;2022-09-09T08:22:03;2.00;;;2.00;;
63379;SDS011;53160;55.014;73.156;2022-09-09T08:24:35;3.00;;;3.00;;
63379;SDS011;53160;55.014;73.156;2022-09-09T08:27:02;3.50;;;3.50;;
63379;SDS011;53160;55.014;73.156;2022-09-09T08:29:28;3.00;;;3.00;;
63379;SDS011;53160;55.014;73.156;2022-09-09T08:31:56;4.50;;;3.75;;
63379;SDS011;53160;55.014;73.156;2022-09-09T08:34:24;2.75;;;2.50;;
63379;SDS011;53160;55.014;73.156;2022-09-09T08:37:02;3.75;;;3.00;;
63379;SDS011;53160;55.014;73.156;2022-09-09T08:39:38;3.75;;;3.25;;
63379;SDS011;53160;55.014;73.156;2022-09-09T08:42:10;3.50;;;3.50;;
63379;SDS011;53160;55.014;73.156;2022-09-09T08:49:48;3.00;;;3.00;;
63379;SDS011;53160;55.014;73.156;2022-09-09T08:52:31;3.00;;;2.00;;
63379;SDS011;53160;55.014;73.156;2022-09-09T08:55:18;3.25;;;3.25;;
63379;SDS011;53160;55.014;73.156;2022-09-09T08:57:54;4.50;;;4.00;;
63379;SDS011;53160;55.014;73.156;2022-09-09T09:00:31;4.25;;;3.50;;
63379;SDS011;53160;55.014;73.156;2022-09-09T09:03:13;3.00;;;3.00;;
63379;SDS011;53160;55.014;73.156;2022-09-09T09:06:06;4.50;;;4.50;;
63379;SDS011;53160;55.014;73.156;2022-09-09T09:08:42;5.00;;;5.00;;
63379;SDS011;53160;55.014;73.156;2022-09-09T09:11:10;3.25;;;3.25;;
63379;SDS011;53160;55.014;73.156;2022-09-09T09:18:55;5.75;;;5.50;;
63379;SDS011;53160;55.014;73.156;2022-09-09T09:23:57;4.50;;;4.25;;
63379;SDS011;53160;55.014;73.156;2022-09-09T09:26:33;4.00;;;4.00;;
63379;SDS011;53160;55.014;73.156;2022-09-09T09:28:59;5.00;;;4.50;;
63379;SDS011;53160;55.014;73.156;2022-09-09T09:31:33;4.25;;;2.75;;
63379;SDS011;53160;55.014;73.156;2022-09-09T09:33:59;3.50;;;3.00;;
63379;SDS011;53160;55.014;73.156;2022-09-09T09:39:28;4.00;;;4.00;;
63379;SDS011;53160;55.014;73.156;2022-09-09T09:41:58;4.00;;;4.00;;
63379;SDS011;53160;55.014;73.156;2022-09-09T09:44:35;5.00;;;4.00;;
63379;SDS011;53160;55.014;73.156;2022-09-09T09:47:18;4.50;;;4.00;;
63379;SDS011;53160;55.014;73.156;2022-09-09T09:49:53;4.50;;;4.00;;
63379;SDS011;53160;55.014;73.156;2022-09-09T09:52:27;5.00;;;4.25;;
63379;SDS011;53160;55.014;73.156;2022-09-09T09:54:59;4.50;;;4.50;;
63379;SDS011;53160;55.014;73.156;2022-09-09T09:57:29;4.50;;;4.50;;
63379;SDS011;53160;55.014;73.156;2022-09-09T10:00:16;3.50;;;3.50;;
63379;SDS011;53160;55.014;73.156;2022-09-09T10:02:50;3.25;;;3.25;;
63379;SDS011;53160;55.014;73.156;2022-09-09T10:05:24;3.75;;;3.00;;
63379;SDS011;53160;55.014;73.156;2022-09-09T10:08:04;4.00;;;4.00;;
63379;SDS011;53160;55.014;73.156;2022-09-09T10:10:37;4.50;;;4.50;;
63379;SDS011;53160;55.014;73.156;2022-09-09T10:18:22;5.75;;;4.25;;
63379;SDS011;53160;55.014;73.156;2022-09-09T10:20:59;5.00;;;5.00;;
63379;SDS011;53160;55.014;73.156;2022-09-09T10:29:07;5.25;;;3.25;;
63379;SDS011;53160;55.014;73.156;2022-09-09T10:34:12;6.50;;;4.00;;
63379;SDS011;53160;55.014;73.156;2022-09-09T10:36:44;4.25;;;4.25;;
63379;SDS011;53160;55.014;73.156;2022-09-09T10:41:42;6.00;;;4.00;;
63379;SDS011;53160;55.014;73.156;2022-09-09T10:47:05;5.75;;;5.00;;
63379;SDS011;53160;55.014;73.156;2022-09-09T10:57:44;4.25;;;4.25;;
63379;SDS011;53160;55.014;73.156;2022-09-09T11:00:15;2.75;;;2.75;;
63379;SDS011;53160;55.014;73.156;2022-09-09T11:02:42;5.00;;;4.00;;
63379;SDS011;53160;55.014;73.156;2022-09-09T11:05:16;7.25;;;6.00;;
63379;SDS011;53160;55.014;73.156;2022-09-09T11:07:47;7.00;;;6.00;;
63379;SDS011;53160;55.014;73.156;2022-09-09T11:10:22;7.25;;;4.50;;
63379;SDS011;53160;55.014;73.156;2022-09-09T11:13:02;4.00;;;4.00;;
63379;SDS011;53160;55.014;73.156;2022-09-09T11:15:39;7.50;;;5.50;;
63379;SDS011;53160;55.014;73.156;2022-09-09T11:18:09;5.00;;;4.50;;
63379;SDS011;53160;55.014;73.156;2022-09-09T11:20:43;3.25;;;3.00;;
63379;SDS011;53160;55.014;73.156;2022-09-09T11:23:11;5.75;;;4.50;;
63379;SDS011;53160;55.014;73.156;2022-09-09T11:25:51;5.25;;;4.00;;
63379;SDS011;53160;55.014;73.156;2022-09-09T11:31:07;4.00;;;4.00;;
63379;SDS011;53160;55.014;73.156;2022-09-09T11:33:54;5.00;;;4.25;;
63379;SDS011;53160;55.014;73.156;2022-09-09T11:36:43;4.50;;;3.25;;
63379;SDS011;53160;55.014;73.156;2022-09-09T11:41:44;3.25;;;3.25;;
63379;SDS011;53160;55.014;73.156;2022-09-09T11:44:18;4.25;;;4.00;;
63379;SDS011;53160;55.014;73.156;2022-09-09T11:46:46;5.00;;;5.00;;
63379;SDS011;53160;55.014;73.156;2022-09-09T11:49:26;4.25;;;3.25;;
63379;SDS011;53160;55.014;73.156;2022-09-09T11:52:23;4.00;;;3.75;;
63379;SDS011;53160;55.014;73.156;2022-09-09T11:54:54;6.25;;;5.25;;
63379;SDS011;53160;55.014;73.156;2022-09-09T11:59:50;9.50;;;7.00;;
63379;SDS011;53160;55.014;73.156;2022-09-09T12:02:20;12.00;;;11.25;;
63379;SDS011;53160;55.014;73.156;2022-09-09T12:04:59;16.75;;;16.25;;
63379;SDS011;53160;55.014;73.156;2022-09-09T12:07:31;26.50;;;25.25;;
63379;SDS011;53160;55.014;73.156;2022-09-09T12:10:19;29.60;;;28.60;;
63379;SDS011;53160;55.014;73.156;2022-09-09T12:12:47;18.25;;;17.50;;
63379;SDS011;53160;55.014;73.156;2022-09-09T12:15:18;30.80;;;28.00;;
63379;SDS011;53160;55.014;73.156;2022-09-09T12:17:47;36.00;;;32.40;;
63379;SDS011;53160;55.014;73.156;2022-09-09T12:20:17;35.60;;;32.40;;
63379;SDS011;53160;55.014;73.156;2022-09-09T12:28:37;37.60;;;33.20;;
63379;SDS011;53160;55.014;73.156;2022-09-09T12:30:37;38.80;;;34.00;;
63379;SDS011;53160;55.014;73.156;2022-09-09T12:33:10;39.20;;;33.60;;
63379;SDS011;53160;55.014;73.156;2022-09-09T12:35:38;60.80;;;49.40;;
63379;SDS011;53160;55.014;73.156;2022-09-09T12:38:06;110.60;;;89.00;;
63379;SDS011;53160;55.014;73.156;2022-09-09T12:40:43;76.80;;;54.40;;
63379;SDS011;53160;55.014;73.156;2022-09-09T12:43:20;134.80;;;107.80;;
63379;SDS011;53160;55.014;73.156;2022-09-09T12:45:48;77.80;;;67.40;;
63379;SDS011;53160;55.014;73.156;2022-09-09T12:48:17;73.80;;;57.00;;
63379;SDS011;53160;55.014;73.156;2022-09-09T12:50:45;31.00;;;29.60;;
63379;SDS011;53160;55.014;73.156;2022-09-09T12:53:18;70.00;;;54.80;;
63379;SDS011;53160;55.014;73.156;2022-09-09T12:56:01;61.80;;;46.60;;
63379;SDS011;53160;55.014;73.156;2022-09-09T12:58:29;50.40;;;39.20;;
63379;SDS011;53160;55.014;73.156;2022-09-09T13:00:59;39.40;;;32.60;;
63379;SDS011;53160;55.014;73.156;2022-09-09T13:03:41;50.40;;;39.40;;
63379;SDS011;53160;55.014;73.156;2022-09-09T13:06:12;12.00;;;9.00;;
63379;SDS011;53160;55.014;73.156;2022-09-09T13:08:40;9.50;;;8.50;;
63379;SDS011;53160;55.014;73.156;2022-09-09T13:11:07;9.50;;;7.50;;
63379;SDS011;53160;55.014;73.156;2022-09-09T13:13:37;3.25;;;2.50;;
63379;SDS011;53160;55.014;73.156;2022-09-09T13:16:21;6.25;;;5.25;;
63379;SDS011;53160;55.014;73.156;2022-09-09T13:18:52;5.25;;;5.25;;
63379;SDS011;53160;55.014;73.156;2022-09-09T13:21:31;7.00;;;6.50;;
63379;SDS011;53160;55.014;73.156;2022-09-09T13:23:57;5.00;;;4.50;;
63379;SDS011;53160;55.014;73.156;2022-09-09T13:26:28;4.50;;;3.00;;
63379;SDS011;53160;55.014;73.156;2022-09-09T13:29:17;6.00;;;5.00;;
63379;SDS011;53160;55.014;73.156;2022-09-09T13:31:53;5.00;;;5.00;;
63379;SDS011;53160;55.014;73.156;2022-09-09T13:34:33;5.25;;;5.25;;
63379;SDS011;53160;55.014;73.156;2022-09-09T13:37:17;6.00;;;5.00;;
63379;SDS011;53160;55.014;73.156;2022-09-09T13:39:51;6.00;;;6.00;;
63379;SDS011;53160;55.014;73.156;2022-09-09T13:42:29;9.50;;;8.50;;
63379;SDS011;53160;55.014;73.156;2022-09-09T13:44:57;8.00;;;7.25;;
63379;SDS011;53160;55.014;73.156;2022-09-09T13:47:36;5.00;;;5.00;;
63379;SDS011;53160;55.014;73.156;2022-09-09T13:52:58;5.25;;;5.00;;
63379;SDS011;53160;55.014;73.156;2022-09-09T13:55:25;6.75;;;6.50;;
63379;SDS011;53160;55.014;73.156;2022-09-09T13:58:03;6.25;;;6.00;;
63379;SDS011;53160;55.014;73.156;2022-09-09T14:00:32;7.00;;;5.25;;
63379;SDS011;53160;55.014;73.156;2022-09-09T14:03:04;6.00;;;5.50;;
63379;SDS011;53160;55.014;73.156;2022-09-09T14:05:33;4.75;;;4.75;;
63379;SDS011;53160;55.014;73.156;2022-09-09T14:08:00;4.00;;;3.00;;
63379;SDS011;53160;55.014;73.156;2022-09-09T14:10:31;6.00;;;6.00;;
63379;SDS011;53160;55.014;73.156;2022-09-09T14:12:59;7.00;;;6.00;;
63379;SDS011;53160;55.014;73.156;2022-09-09T14:15:25;7.00;;;5.75;;
63379;SDS011;53160;55.014;73.156;2022-09-09T14:17:52;7.50;;;7.00;;
63379;SDS011;53160;55.014;73.156;2022-09-09T14:20:24;6.00;;;5.75;;
63379;SDS011;53160;55.014;73.156;2022-09-09T14:22:55;8.25;;;8.00;;
63379;SDS011;53160;55.014;73.156;2022-09-09T14:25:33;3.00;;;3.00;;
63379;SDS011;53160;55.014;73.156;2022-09-09T14:28:00;5.25;;;4.50;;
63379;SDS011;53160;55.014;73.156;2022-09-09T14:30:33;4.25;;;4.00;;
63379;SDS011;53160;55.014;73.156;2022-09-09T14:32:59;6.75;;;6.00;;
63379;SDS011;53160;55.014;73.156;2022-09-09T14:35:27;7.50;;;7.50;;
63379;SDS011;53160;55.014;73.156;2022-09-09T14:38:04;10.75;;;9.50;;
63379;SDS011;53160;55.014;73.156;2022-09-09T14:40:30;11.50;;;7.75;;
63379;SDS011;53160;55.014;73.156;2022-09-09T14:42:57;10.00;;;8.00;;
63379;SDS011;53160;55.014;73.156;2022-09-09T14:45:35;7.25;;;7.00;;
63379;SDS011;53160;55.014;73.156;2022-09-09T14:48:03;7.00;;;7.00;;
63379;SDS011;53160;55.014;73.156;2022-09-09T14:50:30;10.50;;;9.00;;
63379;SDS011;53160;55.014;73.156;2022-09-09T14:53:01;9.25;;;9.25;;
63379;SDS011;53160;55.014;73.156;2022-09-09T14:55:27;22.50;;;21.25;;
63379;SDS011;53160;55.014;73.156;2022-09-09T14:57:54;37.40;;;34.60;;
63379;SDS011;53160;55.014;73.156;2022-09-09T15:00:21;76.80;;;58.00;;
63379;SDS011;53160;55.014;73.156;2022-09-09T15:02:52;54.20;;;44.60;;
63379;SDS011;53160;55.014;73.156;2022-09-09T15:05:18;12.75;;;11.50;;
63379;SDS011;53160;55.014;73.156;2022-09-09T15:07:45;6.00;;;6.00;;
63379;SDS011;53160;55.014;73.156;2022-09-09T15:10:11;7.00;;;6.50;;
63379;SDS011;53160;55.014;73.156;2022-09-09T15:12:37;7.50;;;7.00;;
63379;SDS011;53160;55.014;73.156;2022-09-09T15:15:04;9.50;;;7.50;;
63379;SDS011;53160;55.014;73.156;2022-09-09T15:17:40;6.75;;;6.75;;
63379;SDS011;53160;55.014;73.156;2022-09-09T15:20:16;9.75;;;7.25;;
63379;SDS011;53160;55.014;73.156;2022-09-09T15:22:46;6.00;;;5.75;;
63379;SDS011;53160;55.014;73.156;2022-09-09T15:25:12;7.50;;;6.00;;
63379;SDS011;53160;55.014;73.156;2022-09-09T15:27:38;7.50;;;7.00;;
63379;SDS011;53160;55.014;73.156;2022-09-09T15:30:06;8.25;;;6.50;;
63379;SDS011;53160;55.014;73.156;2022-09-09T15:32:42;5.00;;;5.00;;
63379;SDS011;53160;55.014;73.156;2022-09-09T15:35:08;9.00;;;6.75;;
63379;SDS011;53160;55.014;73.156;2022-09-09T15:37:40;9.00;;;8.75;;
63379;SDS011;53160;55.014;73.156;2022-09-09T15:40:06;10.75;;;9.00;;
63379;SDS011;53160;55.014;73.156;2022-09-09T15:42:32;10.75;;;10.50;;
63379;SDS011;53160;55.014;73.156;2022-09-09T15:45:09;8.25;;;6.75;;
63379;SDS011;53160;55.014;73.156;2022-09-09T15:47:36;8.00;;;7.50;;
63379;SDS011;53160;55.014;73.156;2022-09-09T15:50:02;6.25;;;6.25;;
63379;SDS011;53160;55.014;73.156;2022-09-09T15:52:29;9.25;;;8.50;;
63379;SDS011;53160;55.014;73.156;2022-09-09T15:54:55;8.00;;;8.00;;
63379;SDS011;53160;55.014;73.156;2022-09-09T15:57:22;11.25;;;10.00;;
63379;SDS011;53160;55.014;73.156;2022-09-09T15:59:48;12.50;;;12.00;;
63379;SDS011;53160;55.014;73.156;2022-09-09T16:02:15;8.00;;;8.00;;
63379;SDS011;53160;55.014;73.156;2022-09-09T16:04:51;9.75;;;9.00;;
63379;SDS011;53160;55.014;73.156;2022-09-09T16:07:19;6.00;;;6.00;;
63379;SDS011;53160;55.014;73.156;2022-09-09T16:09:46;7.50;;;7.50;;
63379;SDS011;53160;55.014;73.156;2022-09-09T16:12:12;10.00;;;10.00;;
63379;SDS011;53160;55.014;73.156;2022-09-09T16:14:45;6.00;;;6.00;;
63379;SDS011;53160;55.014;73.156;2022-09-09T16:17:11;6.00;;;6.00;;
63379;SDS011;53160;55.014;73.156;2022-09-09T16:19:40;9.50;;;8.50;;
63379;SDS011;53160;55.014;73.156;2022-09-09T16:22:07;6.75;;;5.25;;
63379;SDS011;53160;55.014;73.156;2022-09-09T16:24:35;25.20;;;22.80;;
63379;SDS011;53160;55.014;73.156;2022-09-09T16:27:01;13.50;;;13.25;;
63379;SDS011;53160;55.014;73.156;2022-09-09T16:29:27;8.25;;;8.00;;
63379;SDS011;53160;55.014;73.156;2022-09-09T16:32:06;8.75;;;5.75;;
63379;SDS011;53160;55.014;73.156;2022-09-09T16:34:42;8.50;;;8.50;;
63379;SDS011;53160;55.014;73.156;2022-09-09T16:37:08;4.50;;;3.25;;
63379;SDS011;53160;55.014;73.156;2022-09-09T16:39:35;11.25;;;10.00;;
63379;SDS011;53160;55.014;73.156;2022-09-09T16:42:11;7.50;;;7.00;;